createdAt,value
2018-09-08T00:01:42.728Z,3.90
2018-09-08T00:04:17.236Z,5.07
2018-09-08T00:06:58.646Z,4.70
2018-09-08T00:09:34.207Z,4.07
2018-09-08T00:12:11.604Z,4.03
2018-09-08T00:14:48.356Z,4.97
2018-09-08T00:17:28.440Z,4.40
2018-09-08T00:20:08.384Z,4.47
2018-09-08T00:22:48.221Z,4.57
2018-09-08T00:25:29.597Z,4.80
2018-09-08T00:28:12.472Z,4.83
2018-09-08T00:30:48.583Z,4.00
2018-09-08T00:33:23.241Z,3.70
2018-09-08T00:35:57.795Z,4.30
2018-09-08T00:38:33.568Z,3.70
2018-09-08T00:42:37.485Z,3.57
2018-09-08T00:45:12.916Z,4.33
2018-09-08T00:47:47.460Z,4.00
2018-09-08T00:50:22.131Z,5.57
2018-09-08T00:52:56.770Z,5.17
2018-09-08T00:55:31.761Z,4.03
2018-09-08T00:58:06.177Z,3.93
2018-09-08T01:00:48.916Z,4.33
2018-09-08T01:03:23.415Z,3.30
2018-09-08T01:06:04.972Z,4.27
2018-09-08T01:08:39.464Z,3.80
2018-09-08T01:11:15.042Z,3.73
2018-09-08T01:13:49.684Z,3.90
2018-09-08T01:16:25.484Z,4.33
2018-09-08T01:19:00.056Z,3.90
2018-09-08T01:21:35.981Z,4.80
2018-09-08T01:24:10.559Z,4.30
2018-09-08T01:26:46.252Z,4.43
2018-09-08T01:29:20.704Z,3.83
2018-09-08T01:31:56.357Z,5.10
2018-09-08T01:34:30.893Z,3.90
2018-09-08T01:37:09.470Z,4.20
2018-09-08T01:39:43.856Z,4.17
2018-09-08T01:42:19.540Z,4.90
2018-09-08T01:44:55.263Z,4.37
2018-09-08T01:47:29.793Z,4.57
2018-09-08T01:50:04.680Z,4.40
2018-09-08T01:52:39.102Z,4.20
2018-09-08T01:55:17.043Z,4.03
2018-09-08T01:57:51.562Z,4.83
2018-09-08T02:00:26.172Z,4.00
2018-09-08T02:03:00.676Z,4.60
2018-09-08T02:05:35.332Z,4.90
2018-09-08T02:08:12.200Z,3.63
2018-09-08T02:10:47.964Z,3.40
2018-09-08T02:13:22.616Z,3.80
2018-09-08T02:15:59.789Z,4.10
2018-09-08T02:18:34.424Z,4.70
2018-09-08T02:21:09.111Z,3.93
2018-09-08T02:23:44.095Z,4.50
2018-09-08T02:26:20.146Z,4.27
2018-09-08T02:28:56.358Z,4.57
2018-09-08T02:31:32.045Z,4.37
2018-09-08T02:34:06.530Z,4.43
2018-09-08T02:36:40.981Z,4.60
2018-09-08T02:39:16.574Z,4.03
2018-09-08T02:41:51.102Z,4.47
2018-09-08T02:44:28.706Z,4.30
2018-09-08T02:47:04.534Z,4.60
2018-09-08T02:49:50.188Z,3.80
2018-09-08T02:52:23.616Z,3.83
2018-09-08T02:54:57.035Z,4.57
2018-09-08T02:57:30.457Z,4.80
2018-09-08T03:00:03.878Z,3.90
2018-09-08T03:02:37.612Z,4.03
2018-09-08T03:05:12.739Z,4.30
2018-09-08T03:07:47.324Z,3.60
2018-09-08T03:10:22.446Z,3.93
2018-09-08T03:12:56.194Z,4.73
2018-09-08T03:15:30.788Z,4.17
2018-09-08T03:18:04.171Z,4.30
2018-09-08T03:20:37.565Z,3.70
2018-09-08T03:23:11.224Z,4.27
2018-09-08T03:25:45.808Z,4.00
2018-09-08T03:28:20.046Z,4.77
2018-09-08T03:30:54.796Z,4.63
2018-09-08T03:33:28.260Z,4.40
2018-09-08T03:36:03.118Z,4.77
2018-09-08T03:38:38.728Z,4.30
2018-09-08T03:41:12.335Z,4.10
2018-09-08T03:43:47.342Z,4.93
2018-09-08T03:46:22.105Z,4.10
2018-09-08T03:48:55.570Z,3.90
2018-09-08T03:51:29.052Z,3.70
2018-09-08T03:54:02.620Z,4.23
2018-09-08T03:56:36.324Z,4.37
2018-09-08T03:59:09.836Z,3.87
2018-09-08T04:01:44.695Z,4.70
2018-09-08T04:04:19.416Z,4.87
2018-09-08T04:06:55.119Z,4.60
2018-09-08T04:09:29.446Z,4.83
2018-09-08T04:12:05.548Z,4.30
2018-09-08T04:14:39.981Z,4.40
2018-09-08T04:17:15.631Z,3.83
2018-09-08T04:19:50.064Z,3.93
2018-09-08T04:22:30.177Z,4.80
2018-09-08T04:25:07.678Z,4.00
2018-09-08T04:27:43.736Z,5.27
2018-09-08T04:30:19.445Z,5.20
2018-09-08T04:33:00.679Z,4.67
2018-09-08T04:35:35.533Z,5.60
2018-09-08T04:38:10.437Z,3.90
2018-09-08T04:40:44.808Z,4.77
2018-09-08T04:43:20.682Z,4.67
2018-09-08T04:45:56.517Z,4.90
2018-09-08T04:48:32.030Z,4.40
2018-09-08T04:51:07.398Z,4.47
2018-09-08T04:53:42.185Z,4.97
2018-09-08T04:56:18.151Z,4.90
2018-09-08T04:58:52.785Z,5.07
2018-09-08T05:01:27.212Z,5.57
2018-09-08T05:04:02.399Z,4.90
2018-09-08T05:06:38.133Z,4.50
2018-09-08T05:09:13.128Z,4.53
2018-09-08T05:11:48.827Z,4.57
2018-09-08T05:14:23.500Z,5.03
2018-09-08T05:16:59.307Z,5.40
2018-09-08T05:19:34.957Z,4.17
2018-09-08T05:22:09.467Z,5.00
2018-09-08T05:24:45.319Z,5.03
2018-09-08T05:27:21.174Z,5.10
2018-09-08T05:30:05.604Z,4.37
2018-09-08T05:32:41.414Z,4.97
2018-09-08T05:35:15.759Z,4.67
2018-09-08T05:37:50.228Z,4.70
2018-09-08T05:40:24.727Z,5.20
2018-09-08T05:42:59.468Z,4.30
2018-09-08T05:45:37.412Z,5.10
2018-09-08T05:48:12.234Z,6.30
2018-09-08T05:50:46.687Z,4.80
2018-09-08T05:53:22.688Z,5.20
2018-09-08T05:55:57.287Z,5.27
2018-09-08T05:58:32.482Z,5.60
2018-09-08T06:01:08.036Z,5.23
2018-09-08T06:03:43.062Z,6.13
2018-09-08T06:06:19.048Z,5.37
2018-09-08T06:08:53.512Z,5.10
2018-09-08T06:11:29.143Z,5.43
2018-09-08T06:14:03.656Z,5.20
2018-09-08T06:16:39.596Z,4.80
2018-09-08T06:19:14.398Z,5.43
2018-09-08T06:21:48.920Z,5.00
2018-09-08T06:24:24.713Z,6.17
2018-09-08T06:27:00.484Z,5.77
2018-09-08T06:29:37.717Z,6.50
2018-09-08T06:32:13.578Z,6.03
2018-09-08T06:34:48.224Z,5.87
2018-09-08T06:37:22.952Z,6.17
2018-09-08T06:39:58.520Z,6.00
2018-09-08T06:42:53.324Z,6.30
2018-09-08T06:45:29.066Z,5.90
2018-09-08T06:48:03.396Z,6.60
2018-09-08T06:50:38.883Z,5.10
2018-09-08T06:53:13.307Z,6.40
2018-09-08T06:55:47.736Z,6.20
2018-09-08T06:58:22.360Z,6.73
2018-09-08T07:00:58.095Z,5.70
2018-09-08T07:03:32.718Z,7.30
2018-09-08T07:06:08.629Z,6.60
2018-09-08T07:08:43.128Z,6.40
2018-09-08T07:11:18.643Z,7.40
2018-09-08T07:13:53.645Z,7.23
2018-09-08T07:16:29.686Z,6.70
2018-09-08T07:19:04.124Z,7.90
2018-09-08T07:21:39.218Z,5.77
2018-09-08T07:24:15.115Z,7.13
2018-09-08T07:26:59.976Z,7.57
2018-09-08T07:29:34.469Z,8.00
2018-09-08T07:32:10.234Z,6.70
2018-09-08T07:34:44.891Z,8.10
2018-09-08T07:37:19.337Z,6.40
2018-09-08T07:39:53.862Z,7.27
2018-09-08T07:42:28.350Z,7.43
2018-09-08T07:45:04.516Z,7.20
2018-09-08T07:47:39.180Z,6.67
2018-09-08T07:50:14.757Z,7.17
2018-09-08T07:52:50.337Z,7.20
2018-09-08T07:55:24.774Z,6.37
2018-09-08T07:57:59.136Z,7.33
2018-09-08T08:00:33.598Z,6.50
2018-09-08T08:03:07.881Z,6.60
2018-09-08T08:05:42.643Z,6.30
2018-09-08T08:08:18.059Z,7.00
2018-09-08T08:10:53.805Z,6.23
2018-09-08T08:13:28.311Z,5.70
2018-09-08T08:16:04.435Z,4.23
2018-09-08T08:18:38.881Z,5.17
2018-09-08T08:21:13.309Z,4.67
2018-09-08T08:23:49.121Z,5.23
2018-09-08T08:26:24.949Z,5.30
2018-09-08T08:28:59.415Z,4.97
2018-09-08T08:31:35.256Z,5.03
2018-09-08T08:34:09.952Z,5.80
2018-09-08T08:36:44.407Z,6.30
2018-09-08T08:39:18.695Z,4.77
2018-09-08T08:42:03.802Z,4.97
2018-09-08T08:44:39.491Z,4.20
2018-09-08T08:47:13.839Z,4.77
2018-09-08T08:52:01.324Z,3.43
2018-09-08T08:54:40.249Z,4.30
2018-09-08T08:57:15.284Z,4.93
2018-09-08T08:59:49.809Z,4.50
2018-09-08T09:02:24.497Z,5.00
2018-09-08T09:04:58.911Z,5.77
2018-09-08T09:07:34.939Z,5.83
2018-09-08T09:10:10.534Z,4.90
2018-09-08T09:12:45.094Z,5.60
2018-09-08T09:15:21.104Z,4.70
2018-09-08T09:17:55.235Z,4.73
2018-09-08T09:20:41.048Z,4.40
2018-09-08T09:23:31.128Z,4.20
2018-09-08T09:26:06.863Z,3.20
2018-09-08T09:28:41.179Z,3.50
2018-09-08T09:31:16.840Z,2.97
2018-09-08T09:33:52.612Z,3.57
2018-09-08T09:36:26.938Z,3.70
2018-09-08T09:39:02.690Z,3.13
2018-09-08T09:41:37.188Z,3.47
2018-09-08T09:44:19.036Z,3.30
2018-09-08T09:46:53.520Z,3.67
2018-09-08T09:49:28.941Z,3.00
2018-09-08T09:52:03.675Z,3.17
2018-09-08T09:54:38.085Z,3.80
2018-09-08T09:57:12.943Z,3.43
2018-09-08T09:59:47.404Z,2.87
2018-09-08T10:02:52.309Z,2.40
2018-09-08T10:05:26.755Z,2.73
2018-09-08T10:08:02.363Z,2.40
2018-09-08T10:10:37.991Z,2.50
2018-09-08T10:13:12.407Z,2.30
2018-09-08T10:15:48.295Z,2.60
2018-09-08T10:18:22.915Z,2.07
2018-09-08T10:20:58.767Z,2.30
2018-09-08T10:23:34.405Z,2.33
2018-09-08T10:26:10.275Z,2.33
2018-09-08T10:28:44.769Z,2.20
2018-09-08T10:31:21.147Z,2.87
2018-09-08T10:34:00.891Z,3.40
2018-09-08T10:36:35.431Z,3.20
2018-09-08T10:39:09.746Z,3.80
2018-09-08T10:41:44.168Z,2.90
2018-09-08T10:44:20.235Z,3.40
2018-09-08T10:46:54.648Z,2.73
2018-09-08T10:49:29.130Z,2.57
2018-09-08T10:52:42.834Z,2.30
2018-09-08T10:55:17.456Z,3.00
2018-09-08T10:57:51.951Z,3.07
2018-09-08T11:00:26.469Z,3.00
2018-09-08T11:03:00.720Z,2.90
2018-09-08T11:05:35.360Z,2.60
2018-09-08T11:08:13.452Z,3.30
2018-09-08T11:10:49.308Z,2.83
2018-09-08T11:13:23.719Z,2.20
2018-09-08T11:15:59.792Z,2.10
2018-09-08T11:18:35.387Z,1.97
2018-09-08T11:21:09.663Z,2.00
2018-09-08T11:23:45.732Z,1.80
2018-09-08T11:26:21.639Z,1.83
2018-09-08T11:28:56.156Z,1.70
2018-09-08T11:31:31.847Z,2.17
2018-09-08T11:34:06.350Z,2.30
2018-09-08T11:36:40.790Z,2.27
2018-09-08T11:39:15.104Z,1.73
2018-09-08T11:41:49.631Z,1.93
2018-09-08T11:44:25.508Z,1.90
2018-09-08T11:46:59.824Z,2.80
2018-09-08T11:49:34.378Z,2.10
2018-09-08T11:52:08.635Z,2.40
2018-09-08T11:54:43.480Z,2.40
2018-09-08T11:57:17.806Z,2.90
2018-09-08T11:59:52.319Z,2.10
2018-09-08T12:02:26.624Z,2.70
2018-09-08T12:05:01.382Z,2.40
2018-09-08T12:07:37.015Z,2.37
2018-09-08T12:10:12.872Z,2.87
2018-09-08T12:12:47.642Z,2.50
2018-09-08T12:15:25.708Z,2.63
2018-09-08T12:18:00.248Z,2.13
2018-09-08T12:20:34.649Z,19.50
2018-09-08T12:23:09.159Z,5.10
2018-09-08T12:25:45.340Z,2.97
2018-09-08T12:28:21.192Z,2.30
2018-09-08T12:30:57.088Z,2.60
2018-09-08T12:33:31.580Z,2.10
2018-09-08T12:36:06.218Z,1.90
2018-09-08T12:38:40.657Z,2.10
2018-09-08T12:41:15.104Z,2.20
2018-09-08T12:43:50.791Z,2.37
2018-09-08T12:46:26.647Z,2.70
2018-09-08T12:49:01.261Z,2.80
2018-09-08T12:51:35.644Z,2.20
2018-09-08T12:54:10.366Z,2.20
2018-09-08T12:56:46.232Z,2.50
2018-09-08T12:59:21.732Z,2.80
2018-09-08T13:01:56.135Z,2.47
2018-09-08T13:04:30.907Z,2.53
2018-09-08T13:07:06.539Z,2.20
2018-09-08T13:09:40.999Z,1.87
2018-09-08T13:12:17.002Z,2.43
2018-09-08T13:14:51.477Z,2.90
2018-09-08T13:17:27.284Z,1.80
2018-09-08T13:20:02.663Z,1.90
2018-09-08T13:22:37.023Z,2.03
2018-09-08T13:25:12.478Z,2.00
2018-09-08T13:27:48.360Z,2.03
2018-09-08T13:30:24.193Z,2.07
2018-09-08T13:32:58.487Z,1.83
2018-09-08T13:35:33.985Z,2.13
2018-09-08T13:38:08.448Z,1.93
2018-09-08T13:40:42.944Z,2.33
2018-09-08T13:43:18.551Z,1.67
2018-09-08T13:45:54.204Z,1.90
2018-09-08T13:48:30.061Z,1.73
2018-09-08T13:51:04.652Z,1.70
2018-09-08T13:53:39.070Z,1.93
2018-09-08T13:56:15.053Z,2.00
2018-09-08T13:58:49.655Z,1.80
2018-09-08T14:01:24.448Z,1.40
2018-09-08T14:03:58.947Z,1.40
2018-09-08T14:06:34.904Z,1.77
2018-09-08T14:09:10.422Z,2.00
2018-09-08T14:11:46.324Z,1.70
2018-09-08T14:14:20.687Z,1.93
2018-09-08T14:16:56.482Z,1.87
2018-09-08T14:19:32.355Z,1.70
2018-09-08T14:22:06.864Z,1.50
2018-09-08T14:24:42.222Z,1.70
2018-09-08T14:27:18.074Z,2.03
2018-09-08T14:29:52.721Z,1.77
2018-09-08T14:32:28.509Z,1.60
2018-09-08T14:35:03.034Z,1.40
2018-09-08T14:37:37.667Z,1.70
2018-09-08T14:40:13.128Z,1.70
2018-09-08T14:42:47.588Z,1.47
2018-09-08T14:45:23.319Z,2.03
2018-09-08T14:47:57.731Z,1.70
2018-09-08T14:50:32.643Z,1.60
2018-09-08T14:53:06.953Z,1.60
2018-09-08T14:55:41.584Z,1.60
2018-09-08T14:58:16.101Z,1.50
2018-09-08T15:00:50.668Z,1.90
2018-09-08T15:03:25.165Z,1.60
2018-09-08T15:06:06.578Z,1.50
2018-09-08T15:08:42.235Z,1.40
2018-09-08T15:11:18.281Z,1.67
2018-09-08T15:13:52.715Z,1.70
2018-09-08T15:16:28.252Z,1.67
2018-09-08T15:19:02.879Z,1.20
2018-09-08T15:21:37.411Z,1.80
2018-09-08T15:24:13.898Z,1.70
2018-09-08T15:26:49.431Z,2.17
2018-09-08T15:29:25.026Z,1.50
2018-09-08T15:32:00.530Z,1.70
2018-09-08T15:34:34.905Z,1.87
2018-09-08T15:37:09.435Z,1.37
2018-09-08T15:39:43.686Z,1.77
2018-09-08T15:42:19.324Z,1.57
2018-09-08T15:44:55.636Z,2.03
2018-09-08T15:47:30.070Z,2.00
2018-09-08T15:50:04.493Z,2.10
2018-09-08T15:52:38.731Z,1.40
2018-09-08T15:55:13.175Z,1.40
2018-09-08T15:57:47.798Z,6.20
2018-09-08T16:00:21.886Z,2.60
2018-09-08T16:02:56.561Z,1.77
2018-09-08T16:05:31.786Z,1.13
2018-09-08T16:08:07.434Z,1.80
2018-09-08T16:10:43.282Z,1.60
2018-09-08T16:13:18.821Z,2.00
2018-09-08T16:15:55.306Z,1.30
2018-09-08T16:18:29.367Z,1.83
2018-09-08T16:21:04.995Z,1.63
2018-09-08T16:23:40.633Z,1.90
2018-09-08T16:26:16.184Z,1.40
2018-09-08T16:28:50.217Z,1.93
2018-09-08T16:31:25.802Z,1.70
2018-09-08T16:33:59.940Z,1.40
2018-09-08T16:36:34.132Z,1.60
2018-09-08T16:39:08.932Z,3.63
2018-09-08T16:41:44.242Z,2.00
2018-09-08T16:44:20.651Z,1.80
2018-09-08T16:46:54.956Z,1.70
2018-09-08T16:49:30.165Z,1.60
2018-09-08T16:52:04.585Z,2.87
2018-09-08T16:54:38.814Z,2.20
2018-09-08T16:57:13.310Z,1.87
2018-09-08T16:59:48.467Z,1.67
2018-09-08T17:02:24.148Z,1.80
2018-09-08T17:04:58.169Z,1.53
2018-09-08T17:07:33.779Z,1.70
2018-09-08T17:10:09.245Z,1.77
2018-09-08T17:12:44.686Z,2.00
2018-09-08T17:17:59.857Z,2.77
2018-09-08T17:20:35.307Z,2.23
2018-09-08T17:23:09.693Z,2.17
2018-09-08T17:25:45.167Z,1.80
2018-09-08T17:28:19.455Z,2.67
2018-09-08T17:30:55.167Z,2.30
2018-09-08T17:33:29.451Z,2.20
2018-09-08T17:36:04.898Z,2.53
2018-09-08T17:38:39.054Z,2.07
2018-09-08T17:41:13.150Z,2.40
2018-09-08T17:43:48.852Z,2.73
2018-09-08T17:46:24.454Z,2.93
2018-09-08T17:48:59.305Z,2.90
2018-09-08T17:51:41.131Z,2.10
2018-09-08T17:54:15.154Z,2.10
2018-09-08T17:56:49.595Z,2.60
2018-09-08T17:59:25.757Z,2.07
2018-09-08T18:02:03.252Z,2.13
2018-09-08T18:04:39.135Z,2.20
2018-09-08T18:07:16.382Z,2.33
2018-09-08T18:09:55.806Z,2.40
2018-09-08T18:12:31.558Z,3.47
2018-09-08T18:15:06.381Z,3.03
2018-09-08T18:17:41.682Z,3.13
2018-09-08T18:20:15.850Z,2.70
2018-09-08T18:22:50.159Z,2.90
2018-09-08T18:25:25.739Z,2.70
2018-09-08T18:28:01.383Z,2.90
2018-09-08T18:30:37.442Z,2.60
2018-09-08T18:33:11.666Z,2.80
2018-09-08T18:35:46.052Z,3.60
2018-09-08T18:38:20.303Z,3.43
2018-09-08T18:40:54.623Z,4.77
2018-09-08T18:43:30.039Z,3.40
2018-09-08T18:46:05.627Z,4.00
2018-09-08T18:48:40.048Z,3.00
2018-09-08T18:51:14.218Z,3.77
2018-09-08T18:53:49.734Z,3.60
2018-09-08T18:56:23.821Z,3.70
2018-09-08T18:58:59.569Z,2.80
2018-09-08T19:01:35.246Z,3.00
2018-09-08T19:04:09.955Z,2.33
2018-09-08T19:06:45.524Z,3.00
2018-09-08T19:09:19.914Z,2.93
2018-09-08T19:11:55.534Z,2.50
2018-09-08T19:14:35.610Z,3.00
2018-09-08T19:17:10.949Z,2.93
2018-09-08T19:19:57.107Z,3.57
2018-09-08T19:22:31.449Z,3.30
2018-09-08T19:25:09.045Z,3.30
2018-09-08T19:27:45.966Z,2.60
2018-09-08T19:30:21.937Z,3.10
2018-09-08T19:32:56.638Z,3.97
2018-09-08T19:35:36.542Z,3.30
2018-09-08T19:38:11.036Z,3.33
2018-09-08T19:40:46.620Z,4.40
2018-09-08T19:43:22.325Z,4.60
2018-09-08T19:46:01.400Z,4.60
2018-09-08T19:48:36.253Z,3.90
2018-09-08T19:51:10.636Z,3.70
2018-09-08T19:53:51.874Z,4.23
2018-09-08T19:56:33.052Z,4.30
2018-09-08T19:59:09.125Z,5.00
2018-09-08T20:01:45.603Z,5.83
2018-09-08T20:04:20.404Z,5.00
2018-09-08T20:06:56.547Z,5.03
2018-09-08T20:09:31.356Z,5.03
2018-09-08T20:12:07.335Z,4.40
2018-09-08T20:14:41.923Z,5.23
2018-09-08T20:17:18.007Z,5.50
2018-09-08T20:19:52.564Z,4.80
2018-09-08T20:22:28.015Z,5.13
2018-09-08T20:26:37.443Z,5.70
2018-09-08T20:29:12.575Z,5.23
2018-09-08T20:31:48.673Z,4.57
2018-09-08T20:34:23.624Z,5.90
2018-09-08T20:36:59.163Z,5.63
2018-09-08T20:39:33.971Z,5.50
2018-09-08T20:42:08.527Z,5.97
2018-09-08T20:44:44.451Z,5.67
2018-09-08T20:47:20.998Z,6.23
2018-09-08T20:49:55.640Z,6.37
2018-09-08T20:52:31.847Z,6.33
2018-09-08T20:55:07.820Z,5.77
2018-09-08T20:57:42.319Z,5.47
2018-09-08T21:00:17.935Z,5.73
2018-09-08T21:02:53.645Z,5.87
2018-09-08T21:05:28.385Z,7.37
2018-09-08T21:08:04.102Z,5.03
2018-09-08T21:10:39.930Z,6.53
2018-09-08T21:13:14.274Z,5.03
2018-09-08T21:15:52.312Z,5.27
2018-09-08T21:18:26.706Z,4.90
2018-09-08T21:21:01.142Z,4.90
2018-09-08T21:23:37.360Z,5.80
2018-09-08T21:26:13.415Z,5.13
2018-09-08T21:28:47.843Z,5.40
2018-09-08T21:31:23.547Z,3.70
2018-09-08T21:33:57.882Z,5.40
2018-09-08T21:36:32.301Z,4.57
2018-09-08T21:39:07.268Z,4.90
2018-09-08T21:41:42.810Z,4.87
2018-09-08T21:44:21.966Z,5.10
2018-09-08T21:46:56.427Z,4.83
2018-09-08T21:49:31.384Z,5.27
2018-09-08T21:52:07.463Z,4.43
2018-09-08T21:54:43.733Z,5.10
2018-09-08T21:57:18.008Z,4.40
2018-09-08T21:59:53.798Z,5.30
2018-09-08T22:02:28.431Z,5.47
2018-09-08T22:05:02.756Z,4.33
2018-09-08T22:07:38.528Z,4.60
2018-09-08T22:10:14.701Z,3.63
2018-09-08T22:12:49.118Z,4.80
2018-09-08T22:15:23.511Z,4.60
2018-09-08T22:17:59.036Z,3.97
2018-09-08T22:20:33.464Z,4.90
2018-09-08T22:23:08.054Z,3.80
2018-09-08T22:25:44.977Z,4.07
2018-09-08T22:28:19.280Z,4.17
2018-09-08T22:30:57.220Z,4.50
2018-09-08T22:33:31.553Z,4.37
2018-09-08T22:36:06.241Z,3.90
2018-09-08T22:38:40.522Z,3.87
2018-09-08T22:41:14.909Z,3.40
2018-09-08T22:43:52.679Z,4.53
2018-09-08T22:46:28.544Z,4.50
2018-09-08T22:49:04.387Z,3.53
2018-09-08T22:51:38.794Z,4.07
2018-09-08T22:54:13.166Z,4.20
2018-09-08T22:56:47.663Z,3.80
2018-09-08T22:59:23.520Z,4.50
2018-09-08T23:01:59.365Z,3.83
2018-09-08T23:04:33.796Z,4.00
2018-09-08T23:07:09.485Z,4.30
2018-09-08T23:12:26.092Z,3.90
2018-09-08T23:15:00.456Z,4.00
2018-09-08T23:17:36.750Z,3.97
2018-09-08T23:20:11.268Z,3.63
2018-09-08T23:22:45.635Z,3.90
2018-09-08T23:25:21.444Z,4.40
2018-09-08T23:27:57.299Z,4.10
2018-09-08T23:30:33.283Z,4.17
2018-09-08T23:33:08.124Z,3.47
2018-09-08T23:35:42.399Z,4.03
2018-09-08T23:38:17.039Z,4.73
2018-09-08T23:40:51.335Z,3.83
2018-09-08T23:43:27.330Z,3.77
2018-09-08T23:46:03.150Z,4.30
2018-09-08T23:48:37.839Z,5.00
2018-09-08T23:51:12.093Z,9.23
2018-09-08T23:53:46.574Z,5.67
2018-09-08T23:56:21.239Z,5.03
2018-09-08T23:58:56.894Z,4.97
